Aérodrome :
LOGIN :

S'inscrire | Disclaimer

   EN    FR    IT 

 










Légende :    VFR   VFR Marginal   IFR   IFR Intensif   IFR Très Intensif
Visi : 
Plafond : 
>= 8 km
>= 3000ft
5 à 8 km
1000 à 3000 ft
1500m à 5 km
500 à 1000 ft
800 à 1500m
200 à 500 ft
< 800m
< 200 ft
Symboles :   Orages  Brouillard  Fortes neiges  Fortes précipitations  Vent > 20 kt
SIGMETs :   Divers  Orages  Givrage  Turbulence  Onde Orograph.  Cendres Volcan.






- Altitude de l'aérodrome : 659 ft
- Code IATA : LGG


EBLG - Liège

DERNIER METAR :
  • 091120Z 25015KT 9999 FEW028 BKN035 22/14 Q1015 NOSIG

METARs EXPIRÉS :
  • 091050Z 25013KT 9999 SCT028 BKN035 21/14 Q1015 NOSIG
  • 091020Z 25014KT 9999 SCT024 BKN030 20/14 Q1015 NOSIG
  • 090950Z 24014KT 9999 SCT020 BKN027 20/14 Q1015 NOSIG
  • 090920Z 24013KT 9999 FEW014 BKN023 19/15 Q1015 NOSIG
  • 090850Z 24011KT 9999 SCT014 BKN023 19/16 Q1015 NOSIG

TAF TAF EBLG
Valide du 09 à 12h jusqu'au 10 à 18h UTC


091100Z 0912/1018 25010KT 9999 SCT030
TEMPO 0921/1004 BKN013
BECMG 1004/1006 SCT007 BKN012
PROB40
TEMPO 1005/1010 3500 -RADZ SCT003 BKN004
BECMG 1011/1013 31010KT BKN025



MET'MAP, la Météo Aéronautique d'un coup d'oeil ! - Copyright ORBIFLY Décembre 2007 - Disclaimer

ORBIFLY MET'MAP TEAM :

Programmation & Développement : Alexandra Zaïnal
Sur une idée originale de : Baudouin d'Aumeries
Assistance à la programmation : Marc-Olivier Méhu
Soutien technique & logistique : Manuel Goepfert

Contact : metmap@orbifly.com




SOURCES & CREDITS :

   NOAA